الصفحة الرئيسية
METAR-TAF:

METAR-TAF

مطار :

Weipa, أستراليا

دائرة عرض: 12-40-43S, خط طول: 141-55-31E, ارتفاع: 19 متر

مراقبة الطقس الحالي

تاريخ ووقت الإصدار 1ساعة و 5 دقيقة قبل الساعة 21:00UTC
ريح 4 عقدة من الجنوب الشرقي
درجة الحرارة 20°درجة مئوية
الرطوبة 88%
ضغط 1015 hPa
الرؤية 10 كم أو أكثر
غيوم مفككة على ارتفاع 3300 قدم

METAR: YBWP 252100Z AUTO 14004KT 9999 // BKN033 20/18 Q1015

زمن: 08:05 (22:05 UTC)


TAF: مفقودة

أرصاد الطقس والتوقعات من أكثر من 4000 مطار (تقارير الطقس للمطار METAR والتنبؤ بالطقس بالمطارTAF).

المحطات المتاحة هي النقط الصفراء والحمراء على الخريطة.

حرك المؤشر فوق النقطة لمعرفة اسم المحطة.

ثم انقر لمعرفة أرصاد وتوقعات الطقس.

لتغيير الخارطة: اضغط على الأزرار الخضراء مع رمز الصليب الأسود للتكبير. على الزر الأخضر مع شرطة للتصغير، أو على الأسهم الخضراء للخرائط المجاورة.


METAR-TAF: